Fish House, New York
Current Conditions -  °F | °C
As of 10:55 PM on Thursday 27 Nov 2014 (Local Time) from KNY0 Reporting Station
Overcast Overcast  
Wind Chill: 19°   Ceiling: 4600
Heat Index: 25°   Visibility: 10mi
Dew Point: 22°   Wind: 5mph
Humidity: 89%   Direction: 270°W
Pressure: 30.02"   Gusts: NA
Location:  43.0744°N, 74.1473°W
Report Text: KNY0 280355Z AUTO 27004KT 10SM OVC046 M04/M06 A3002 RMK AO2 T10411056
Loading
Personal Weather Stations






























Interactive Weather Map New forecast layout! Learn more

10-Day Weather Forecast

Advertisements
Track Severe Weather on mobile